createdAt,value
2019-03-09T00:01:19.650Z,33.19
2019-03-09T00:04:23.178Z,33.20
2019-03-09T00:07:27.693Z,33.19
2019-03-09T00:10:31.201Z,33.19
2019-03-09T00:13:34.725Z,33.17
2019-03-09T00:16:39.231Z,33.15
2019-03-09T00:19:43.750Z,33.18
2019-03-09T00:22:51.371Z,33.20
2019-03-09T00:26:13.533Z,33.18
2019-03-09T00:29:23.963Z,33.18
2019-03-09T00:32:27.901Z,33.18
2019-03-09T00:35:31.383Z,33.17
2019-03-09T00:38:36.941Z,33.19
2019-03-09T00:41:41.440Z,33.20
2019-03-09T00:44:45.968Z,33.17
2019-03-09T00:47:49.470Z,33.18
2019-03-09T00:50:52.969Z,33.18
2019-03-09T00:53:57.543Z,33.14
2019-03-09T00:57:01.477Z,33.15
2019-03-09T01:00:06.055Z,33.12
2019-03-09T01:03:09.464Z,33.13
2019-03-09T01:06:12.934Z,33.11
2019-03-09T01:09:16.446Z,33.12
2019-03-09T01:12:19.924Z,33.12
2019-03-09T01:15:24.476Z,33.14
2019-03-09T01:18:27.971Z,33.12
2019-03-09T01:21:33.509Z,33.06
2019-03-09T01:24:37.011Z,33.07
2019-03-09T01:27:40.505Z,33.07
2019-03-09T01:30:44.016Z,33.04
2019-03-09T01:33:48.543Z,33.09
2019-03-09T01:36:53.049Z,33.08
2019-03-09T01:39:56.571Z,33.08
2019-03-09T01:42:59.992Z,33.08
2019-03-09T01:46:03.507Z,33.07
2019-03-09T01:49:07.187Z,33.07
2019-03-09T01:52:10.630Z,33.09
2019-03-09T01:55:17.353Z,33.09
2019-03-09T01:58:20.842Z,33.10
2019-03-09T02:01:24.350Z,33.11
2019-03-09T02:04:27.790Z,33.11
2019-03-09T02:07:31.266Z,33.08
2019-03-09T02:10:34.856Z,33.09
2019-03-09T02:13:38.337Z,33.10
2019-03-09T02:16:41.856Z,33.07
2019-03-09T02:19:45.352Z,33.06
2019-03-09T02:22:48.858Z,33.09
2019-03-09T02:25:52.352Z,33.08
2019-03-09T02:28:55.850Z,33.07
2019-03-09T02:31:59.345Z,33.04
2019-03-09T02:35:02.872Z,33.05
2019-03-09T02:38:14.386Z,33.08
2019-03-09T02:41:17.854Z,33.07
2019-03-09T02:44:21.348Z,33.08
2019-03-09T02:47:24.839Z,33.04
2019-03-09T02:50:28.339Z,33.10
2019-03-09T02:53:31.792Z,33.07
2019-03-09T02:56:35.247Z,33.10
2019-03-09T02:59:38.876Z,33.10
2019-03-09T03:03:01.669Z,33.10
2019-03-09T03:06:06.136Z,33.10
2019-03-09T03:09:09.619Z,33.09
2019-03-09T03:12:14.157Z,33.06
2019-03-09T03:15:30.475Z,33.09
2019-03-09T03:18:33.943Z,33.11
2019-03-09T03:21:37.550Z,33.09
2019-03-09T03:24:41.071Z,33.10
2019-03-09T03:27:44.481Z,33.10
2019-03-09T03:30:47.953Z,33.12
2019-03-09T03:33:51.548Z,33.10
2019-03-09T03:36:57.098Z,33.10
2019-03-09T03:40:01.644Z,33.10
2019-03-09T03:43:06.185Z,33.10
2019-03-09T03:46:10.669Z,33.08
2019-03-09T03:49:14.176Z,33.10
2019-03-09T03:52:17.679Z,33.10
2019-03-09T03:55:22.292Z,33.11
2019-03-09T03:58:25.723Z,33.06
2019-03-09T04:01:30.274Z,33.10
2019-03-09T04:04:33.726Z,33.08
2019-03-09T04:07:37.278Z,33.09
2019-03-09T04:10:40.766Z,33.08
2019-03-09T04:13:44.263Z,33.07
2019-03-09T04:16:47.906Z,33.08
2019-03-09T04:19:51.452Z,33.09
2019-03-09T04:22:54.954Z,33.08
2019-03-09T04:25:58.434Z,33.09
2019-03-09T04:29:03.891Z,33.07
2019-03-09T04:32:07.504Z,33.08
2019-03-09T04:35:11.025Z,33.07
2019-03-09T04:38:14.484Z,33.08
2019-03-09T04:41:18.000Z,33.08
2019-03-09T04:44:21.429Z,33.08
2019-03-09T04:47:24.915Z,33.09
2019-03-09T04:50:28.407Z,33.08
2019-03-09T04:53:31.981Z,33.06
2019-03-09T04:56:35.570Z,33.07
2019-03-09T04:59:39.027Z,33.07
2019-03-09T05:02:42.492Z,33.05
2019-03-09T05:05:46.006Z,33.06
2019-03-09T05:08:58.804Z,33.09
2019-03-09T05:12:02.426Z,33.09
2019-03-09T05:15:07.781Z,33.05
2019-03-09T05:18:12.292Z,33.03
2019-03-09T05:21:15.810Z,32.93
2019-03-09T05:24:19.223Z,32.99
2019-03-09T05:27:22.700Z,32.96
2019-03-09T05:30:46.280Z,32.90
2019-03-09T05:33:49.859Z,32.89
2019-03-09T05:36:54.393Z,32.91
2019-03-09T05:39:57.913Z,32.91
2019-03-09T05:43:01.458Z,32.91
2019-03-09T05:46:04.899Z,32.86
2019-03-09T05:49:08.403Z,32.85
2019-03-09T05:52:32.590Z,32.88
2019-03-09T05:55:37.131Z,32.81
2019-03-09T05:58:40.596Z,32.83
2019-03-09T06:01:45.169Z,32.81
2019-03-09T06:04:49.645Z,32.80
2019-03-09T06:07:53.164Z,32.83
2019-03-09T06:10:56.750Z,32.84
2019-03-09T06:14:00.366Z,32.85
2019-03-09T06:17:04.916Z,32.84
2019-03-09T06:20:08.378Z,32.83
2019-03-09T06:23:13.933Z,32.79
2019-03-09T06:26:17.433Z,32.79
2019-03-09T06:29:20.935Z,32.85
2019-03-09T06:33:00.779Z,32.85
2019-03-09T06:36:35.942Z,32.87
2019-03-09T06:39:45.161Z,32.88
2019-03-09T06:42:52.112Z,32.69
2019-03-09T06:45:56.697Z,32.79
2019-03-09T06:49:00.183Z,32.78
2019-03-09T06:52:03.669Z,32.75
2019-03-09T06:55:08.306Z,32.72
2019-03-09T06:58:13.517Z,32.75
2019-03-09T07:01:19.014Z,32.67
2019-03-09T07:04:22.440Z,32.69
2019-03-09T07:07:25.888Z,32.70
2019-03-09T07:10:29.384Z,32.69
2019-03-09T07:13:32.893Z,32.73
2019-03-09T07:16:36.327Z,32.75
2019-03-09T07:19:40.735Z,32.74
2019-03-09T07:22:44.155Z,32.81
2019-03-09T07:25:47.617Z,32.71
2019-03-09T07:28:51.225Z,32.73
2019-03-09T07:31:54.729Z,32.75
2019-03-09T07:34:58.220Z,32.79
2019-03-09T07:38:01.734Z,32.77
2019-03-09T07:41:05.218Z,32.74
2019-03-09T07:44:08.939Z,32.77
2019-03-09T07:47:12.443Z,32.78
2019-03-09T07:50:15.938Z,32.79
2019-03-09T07:53:20.461Z,32.75
2019-03-09T07:56:23.945Z,32.78
2019-03-09T07:59:27.388Z,32.78
2019-03-09T08:02:30.971Z,32.80
2019-03-09T08:05:36.503Z,32.79
2019-03-09T08:08:40.022Z,32.81
2019-03-09T08:11:44.525Z,32.81
2019-03-09T08:14:48.025Z,33.07
2019-03-09T08:17:51.497Z,33.35
2019-03-09T08:20:54.946Z,33.42
2019-03-09T08:23:58.440Z,33.46
2019-03-09T08:27:02.033Z,33.44
2019-03-09T08:30:07.294Z,33.43
2019-03-09T08:33:10.795Z,33.50
2019-03-09T08:36:14.394Z,33.42
2019-03-09T08:39:17.924Z,33.46
2019-03-09T08:42:22.442Z,33.44
2019-03-09T08:45:25.852Z,33.41
2019-03-09T08:48:32.317Z,33.47
2019-03-09T08:51:35.985Z,33.47
2019-03-09T08:54:39.499Z,33.40
2019-03-09T08:57:42.930Z,33.46
2019-03-09T09:00:46.516Z,33.45
2019-03-09T09:03:50.114Z,33.38
2019-03-09T09:06:53.557Z,33.38
2019-03-09T09:09:57.006Z,33.38
2019-03-09T09:13:00.557Z,33.38
2019-03-09T09:16:03.984Z,33.42
2019-03-09T09:19:08.527Z,33.42
2019-03-09T09:22:12.136Z,33.42
2019-03-09T09:25:15.808Z,33.34
2019-03-09T09:28:19.457Z,33.16
2019-03-09T09:31:22.885Z,33.08
2019-03-09T09:34:26.385Z,33.15
2019-03-09T09:37:30.050Z,33.03
2019-03-09T09:40:33.758Z,32.99
2019-03-09T09:43:37.349Z,32.99
2019-03-09T09:46:40.839Z,33.39
2019-03-09T09:49:44.343Z,33.56
2019-03-09T09:52:48.870Z,33.52
2019-03-09T09:55:52.385Z,33.45
2019-03-09T09:58:56.895Z,33.46
2019-03-09T10:02:01.479Z,33.37
2019-03-09T10:05:05.119Z,33.38
2019-03-09T10:08:09.655Z,33.38
2019-03-09T10:11:13.159Z,33.36
2019-03-09T10:14:17.698Z,33.30
2019-03-09T10:17:21.173Z,33.31
2019-03-09T10:20:24.702Z,33.31
2019-03-09T10:23:28.193Z,33.26
2019-03-09T10:26:31.691Z,33.25
2019-03-09T10:29:35.259Z,33.17
2019-03-09T10:32:38.693Z,33.17
2019-03-09T10:35:43.231Z,33.16
2019-03-09T10:38:46.727Z,33.15
2019-03-09T10:41:50.208Z,33.10
2019-03-09T10:44:53.721Z,33.10
2019-03-09T10:47:57.217Z,33.03
2019-03-09T10:51:00.708Z,33.00
2019-03-09T10:54:04.222Z,32.96
2019-03-09T10:57:07.718Z,32.96
2019-03-09T11:00:17.461Z,32.92
2019-03-09T11:03:21.058Z,32.93
2019-03-09T11:06:24.575Z,32.89
2019-03-09T11:09:28.082Z,32.92
2019-03-09T11:12:31.573Z,32.87
2019-03-09T11:15:37.514Z,32.90
2019-03-09T11:18:40.545Z,32.87
2019-03-09T11:21:44.235Z,32.84
2019-03-09T11:24:47.831Z,32.87
2019-03-09T11:27:51.348Z,32.89
2019-03-09T11:30:55.850Z,32.80
2019-03-09T11:33:59.357Z,32.74
2019-03-09T11:37:02.871Z,32.67
2019-03-09T11:40:06.359Z,32.60
2019-03-09T11:43:09.857Z,32.55
2019-03-09T11:46:13.358Z,32.52
2019-03-09T11:49:16.855Z,32.48
2019-03-09T11:52:21.389Z,32.48
2019-03-09T11:55:25.010Z,32.43
2019-03-09T11:58:28.567Z,32.37
2019-03-09T12:01:32.109Z,32.46
2019-03-09T12:04:46.411Z,32.61
2019-03-09T12:07:41.962Z,32.61
2019-03-09T12:10:45.533Z,32.67
2019-03-09T12:13:48.973Z,32.69
2019-03-09T12:16:52.457Z,32.62
2019-03-09T12:19:55.983Z,32.60
2019-03-09T12:23:12.299Z,32.63
2019-03-09T12:26:15.914Z,32.62
2019-03-09T12:29:19.380Z,32.61
2019-03-09T12:32:22.919Z,32.65
2019-03-09T12:35:26.500Z,32.64
2019-03-09T12:38:30.013Z,32.66
2019-03-09T12:41:33.584Z,32.64
2019-03-09T12:44:37.085Z,32.61
2019-03-09T12:47:40.590Z,32.63
2019-03-09T12:50:44.093Z,32.68
2019-03-09T12:53:47.584Z,32.69
2019-03-09T12:56:51.132Z,32.70
2019-03-09T12:59:54.633Z,32.74
2019-03-09T13:02:58.095Z,32.83
2019-03-09T13:06:01.610Z,32.95
2019-03-09T13:09:05.283Z,32.99
2019-03-09T13:12:08.971Z,32.95
2019-03-09T13:15:13.892Z,32.96
2019-03-09T13:18:17.448Z,32.90
2019-03-09T13:21:20.973Z,32.82
2019-03-09T13:24:25.484Z,32.80
2019-03-09T13:27:28.959Z,32.79
2019-03-09T13:30:32.462Z,32.73
2019-03-09T13:33:36.993Z,32.69
2019-03-09T13:36:40.506Z,32.68
2019-03-09T13:39:45.024Z,32.65
2019-03-09T13:42:48.522Z,32.65
2019-03-09T13:45:52.039Z,32.63
2019-03-09T13:48:55.671Z,32.65
2019-03-09T13:51:59.182Z,32.62
2019-03-09T13:55:02.631Z,32.65
2019-03-09T13:58:06.252Z,32.62
2019-03-09T14:01:09.755Z,32.62
2019-03-09T14:04:13.197Z,32.60
2019-03-09T14:07:16.654Z,32.68
2019-03-09T14:10:20.303Z,33.14
2019-03-09T14:13:23.731Z,33.19
2019-03-09T14:16:27.242Z,33.24
2019-03-09T14:19:30.765Z,33.22
2019-03-09T14:22:34.250Z,33.21
2019-03-09T14:25:37.753Z,33.15
2019-03-09T14:28:41.380Z,33.24
2019-03-09T14:31:45.975Z,33.26
2019-03-09T14:34:49.680Z,33.21
2019-03-09T14:37:53.183Z,33.20
2019-03-09T14:40:56.682Z,33.18
2019-03-09T14:44:00.192Z,33.18
2019-03-09T14:47:03.735Z,33.17
2019-03-09T14:50:07.195Z,33.16
2019-03-09T14:53:10.610Z,33.17
2019-03-09T14:56:14.204Z,33.12
2019-03-09T14:59:17.684Z,33.14
2019-03-09T15:02:21.214Z,33.12
2019-03-09T15:05:24.695Z,33.17
2019-03-09T15:08:28.195Z,33.16
2019-03-09T15:11:31.699Z,33.20
2019-03-09T15:14:35.218Z,33.18
2019-03-09T15:17:44.771Z,33.18
2019-03-09T15:20:48.370Z,33.19
2019-03-09T15:23:51.830Z,33.15
2019-03-09T15:26:55.369Z,33.15
2019-03-09T15:29:58.795Z,33.16
2019-03-09T15:33:02.244Z,33.15
2019-03-09T15:36:05.853Z,33.11
2019-03-09T15:39:10.361Z,33.18
2019-03-09T15:42:13.876Z,33.14
2019-03-09T15:45:18.397Z,33.13
2019-03-09T15:48:21.911Z,33.13
2019-03-09T15:51:26.226Z,33.13
2019-03-09T15:54:29.657Z,33.12
2019-03-09T15:57:33.122Z,33.15
2019-03-09T16:00:36.551Z,33.11
2019-03-09T16:03:40.028Z,33.06
2019-03-09T16:06:43.513Z,33.14
2019-03-09T16:09:47.041Z,33.06
2019-03-09T16:12:50.567Z,33.08
2019-03-09T16:15:54.028Z,33.06
2019-03-09T16:18:57.528Z,33.02
2019-03-09T16:22:00.985Z,32.99
2019-03-09T16:25:04.658Z,32.85
2019-03-09T16:28:08.191Z,32.81
2019-03-09T16:31:11.627Z,32.77
2019-03-09T16:34:15.044Z,32.79
2019-03-09T16:37:19.558Z,32.77
2019-03-09T16:40:23.057Z,32.79
2019-03-09T16:43:27.601Z,32.78
2019-03-09T16:46:31.252Z,32.80
2019-03-09T16:49:34.680Z,32.82
2019-03-09T16:52:38.409Z,32.84
2019-03-09T16:55:41.960Z,32.86
2019-03-09T16:58:45.404Z,32.90
2019-03-09T17:01:49.010Z,32.91
2019-03-09T17:04:52.717Z,32.85
2019-03-09T17:07:56.269Z,32.89
2019-03-09T17:10:59.709Z,32.84
2019-03-09T17:14:03.226Z,32.88
2019-03-09T17:17:07.720Z,32.88
2019-03-09T17:20:12.356Z,32.89
2019-03-09T17:23:15.964Z,32.93
2019-03-09T17:26:19.584Z,32.93
2019-03-09T17:29:23.108Z,32.90
2019-03-09T17:32:26.790Z,32.92
2019-03-09T17:35:33.348Z,32.92
2019-03-09T17:38:36.956Z,32.94
2019-03-09T17:41:40.397Z,33.17
2019-03-09T17:44:43.857Z,33.29
2019-03-09T17:47:48.478Z,33.29
2019-03-09T17:50:51.922Z,33.25
2019-03-09T17:53:55.413Z,33.22
2019-03-09T17:56:58.925Z,33.23
2019-03-09T18:00:02.497Z,33.24
2019-03-09T18:03:07.028Z,33.21
2019-03-09T18:06:10.443Z,33.19
2019-03-09T18:09:13.967Z,33.20
2019-03-09T18:12:17.398Z,33.17
2019-03-09T18:15:20.814Z,33.15
2019-03-09T18:18:24.334Z,33.20
2019-03-09T18:21:27.752Z,33.15
2019-03-09T18:24:31.213Z,33.11
2019-03-09T18:27:34.930Z,33.10
2019-03-09T18:30:38.540Z,33.11
2019-03-09T18:33:41.958Z,33.17
2019-03-09T18:36:45.391Z,33.15
2019-03-09T18:39:48.874Z,33.12
2019-03-09T18:42:52.327Z,33.15
2019-03-09T18:45:55.833Z,33.13
2019-03-09T18:49:01.384Z,33.04
2019-03-09T18:52:04.882Z,32.98
2019-03-09T18:55:08.505Z,32.95
2019-03-09T18:58:12.079Z,33.21
2019-03-09T19:01:16.637Z,33.23
2019-03-09T19:04:21.148Z,33.26
2019-03-09T19:07:24.636Z,33.26
2019-03-09T19:10:29.045Z,33.32
2019-03-09T19:13:32.660Z,33.33
2019-03-09T19:16:36.157Z,33.33
2019-03-09T19:19:40.676Z,33.40
2019-03-09T19:22:44.196Z,33.37
2019-03-09T19:25:47.681Z,33.38
2019-03-09T19:28:51.187Z,33.38
2019-03-09T19:31:54.786Z,33.38
2019-03-09T19:34:59.442Z,33.39
2019-03-09T19:38:02.890Z,33.42
2019-03-09T19:41:07.310Z,33.39
2019-03-09T19:44:10.962Z,33.46
2019-03-09T19:47:14.455Z,33.46
2019-03-09T19:50:19.014Z,33.45
2019-03-09T19:53:22.472Z,33.42
2019-03-09T19:56:25.894Z,33.42
2019-03-09T19:59:29.430Z,33.35
2019-03-09T20:02:32.861Z,33.35
2019-03-09T20:05:36.298Z,33.30
2019-03-09T20:08:40.811Z,33.27
2019-03-09T20:11:45.307Z,33.31
2019-03-09T20:14:49.849Z,33.25
2019-03-09T20:17:53.370Z,33.12
2019-03-09T20:20:57.883Z,33.10
2019-03-09T20:24:01.440Z,33.13
2019-03-09T20:27:04.980Z,33.10
2019-03-09T20:30:08.952Z,33.10
2019-03-09T20:33:12.373Z,33.06
2019-03-09T20:36:15.991Z,33.09
2019-03-09T20:39:19.503Z,32.92
2019-03-09T20:42:24.088Z,33.05
2019-03-09T20:45:27.725Z,32.84
2019-03-09T20:48:32.370Z,32.70
2019-03-09T20:51:37.465Z,32.42
2019-03-09T20:54:41.094Z,32.54
2019-03-09T20:57:45.648Z,32.53
2019-03-09T21:00:51.347Z,32.69
2019-03-09T21:03:54.974Z,32.31
2019-03-09T21:06:58.631Z,32.17
2019-03-09T21:10:02.151Z,32.14
2019-03-09T21:13:06.847Z,32.43
2019-03-09T21:16:10.792Z,32.39
2019-03-09T21:19:16.324Z,32.37
2019-03-09T21:22:19.787Z,32.23
2019-03-09T21:25:23.532Z,32.30
2019-03-09T21:28:28.078Z,32.22
2019-03-09T21:31:31.511Z,32.21
2019-03-09T21:34:35.024Z,32.24
2019-03-09T21:37:38.510Z,31.99
2019-03-09T21:40:44.067Z,31.99
2019-03-09T21:43:47.562Z,32.24
2019-03-09T21:46:51.079Z,32.35
2019-03-09T21:49:55.569Z,31.90
2019-03-09T21:53:00.093Z,32.27
2019-03-09T21:56:04.630Z,32.05
2019-03-09T21:59:08.169Z,31.85
2019-03-09T22:02:12.689Z,31.71
2019-03-09T22:05:17.246Z,32.13
2019-03-09T22:08:21.742Z,31.73
2019-03-09T22:11:25.216Z,32.00
2019-03-09T22:14:28.717Z,31.99
2019-03-09T22:17:32.215Z,32.02
2019-03-09T22:20:37.672Z,32.18
2019-03-09T22:23:44.363Z,31.79
2019-03-09T22:26:46.385Z,32.14
2019-03-09T22:29:49.957Z,31.82
2019-03-09T22:32:53.406Z,32.09
2019-03-09T22:35:56.899Z,31.67
2019-03-09T22:39:01.421Z,31.72
2019-03-09T22:42:04.954Z,31.70
2019-03-09T22:45:09.424Z,31.89
2019-03-09T22:48:12.954Z,32.03
2019-03-09T22:51:16.541Z,31.90
2019-03-09T22:54:20.161Z,31.87
2019-03-09T22:57:23.655Z,31.86
2019-03-09T23:00:27.203Z,31.65
2019-03-09T23:03:30.649Z,31.89
2019-03-09T23:06:35.199Z,32.02
2019-03-09T23:09:39.725Z,32.08
2019-03-09T23:12:44.293Z,32.02
2019-03-09T23:15:47.718Z,31.83
2019-03-09T23:18:51.196Z,31.85
2019-03-09T23:21:54.656Z,31.93
2019-03-09T23:24:58.159Z,31.77
2019-03-09T23:28:01.645Z,32.07
2019-03-09T23:31:05.240Z,31.87
2019-03-09T23:34:08.746Z,31.74
2019-03-09T23:37:13.318Z,31.88
2019-03-09T23:40:17.836Z,31.88
2019-03-09T23:43:21.298Z,31.95
2019-03-09T23:46:24.814Z,31.97
2019-03-09T23:49:28.324Z,31.96
2019-03-09T23:52:31.815Z,31.80
2019-03-09T23:55:36.333Z,32.04
2019-03-09T23:58:39.817Z,31.83
